Time;durP1;ratioP1;P1;durP2;ratioP2;P2;SDS_P1;SDS_P2;PMS_P1;PMS_P2;Temp;Humidity;BMP_temperature;BMP_pressure;BME280_temperature;BME280_humidity;BME280_pressure;Samples;Min_cycle;Max_cycle;Signal;HPM_P1;HPM_P2
2022/06/01 00:00:08;;;;;;;;;;;;;;;9.41;100.00;99853.31;5151323;27;19922;-48
2022/06/01 00:02:34;;;;;;;;;;;;;;;9.35;100.00;99860.16;5151068;27;20421;-49
2022/06/01 00:05:00;;;;;;;;;;;;;;;9.35;100.00;99857.41;5150936;27;19927;-48
2022/06/01 00:07:26;;;;;;;;;;;;;;;9.35;100.00;99859.34;5151379;27;19927;-48
2022/06/01 00:09:54;;;;;;;;;;;;;;;9.32;100.00;99854.56;5154765;27;19975;-49
2022/06/01 00:12:20;;;;;;;;;;;;;;;9.30;100.00;99841.22;5154616;27;19949;-48
2022/06/01 00:14:46;;;;;;;;;;;;;;;9.26;100.00;99851.22;5154370;27;19923;-49
2022/06/01 00:17:12;;;;;;;;;;;;;;;9.24;100.00;99850.00;5154853;27;19945;-49
2022/06/01 00:19:38;;;;;;;;;;;;;;;9.24;100.00;99847.25;5154395;27;19930;-49
2022/06/01 00:22:14;;;;;;;;;;;;;;;9.17;100.00;99834.94;5154523;27;19923;-48
2022/06/01 00:24:41;;;;;;;;;;;;;;;9.17;100.00;99834.13;5154405;27;19930;-48
2022/06/01 00:27:07;;;;;;;;;;;;;;;9.14;100.00;99832.09;5154671;27;19923;-49
2022/06/01 00:29:33;;;;;;;;;;;;;;;9.11;100.00;99825.34;5154303;27;19930;-48
2022/06/01 00:31:59;;;;;;;;;;;;;;;9.15;100.00;99822.72;5154130;27;19966;-49
2022/06/01 00:34:25;;;;;;;;;;;;;;;9.13;100.00;99822.25;5154139;27;19923;-51
2022/06/01 00:36:51;;;;;;;;;;;;;;;9.14;100.00;99829.34;5154123;27;19923;-48
2022/06/01 00:39:18;;;;;;;;;;;;;;;9.15;100.00;99836.41;5154129;27;19923;-50
2022/06/01 00:41:44;;;;;;;;;;;;;;;9.11;100.00;99830.03;5154189;27;19923;-49
2022/06/01 00:44:09;;;;;;;;;;;;;;;9.10;100.00;99826.50;5154304;27;19930;-47
2022/06/01 00:46:35;;;;;;;;;;;;;;;9.06;100.00;99824.75;5153871;27;19923;-49
2022/06/01 00:49:03;;;;;;;;;;;;;;;8.99;100.00;99817.09;5154281;27;19922;-48
2022/06/01 00:51:29;;;;;;;;;;;;;;;9.00;100.00;99804.22;5153967;27;19923;-49
2022/06/01 00:53:57;;;;;;;;;;;;;;;8.95;100.00;99802.50;5154143;27;19930;-49
2022/06/01 00:56:25;;;;;;;;;;;;;;;8.94;100.00;99806.41;5153799;27;19922;-49
2022/06/01 00:58:54;;;;;;;;;;;;;;;8.92;100.00;99803.97;5153918;27;19930;-48
2022/06/01 01:01:21;;;;;;;;;;;;;;;8.93;100.00;99794.66;5153807;27;20362;-51
2022/06/01 01:03:49;;;;;;;;;;;;;;;8.91;100.00;99785.97;5153628;27;19922;-49
2022/06/01 01:06:16;;;;;;;;;;;;;;;8.88;100.00;99781.19;5153864;27;19930;-51
2022/06/01 01:08:43;;;;;;;;;;;;;;;8.84;100.00;99782.22;5153459;27;19930;-49
2022/06/01 01:11:10;;;;;;;;;;;;;;;8.84;100.00;99783.00;5153961;27;19923;-51
2022/06/01 01:13:38;;;;;;;;;;;;;;;8.84;100.00;99771.28;5153445;27;19923;-50
2022/06/01 01:16:04;;;;;;;;;;;;;;;8.81;100.00;99780.94;5153961;27;19927;-48
2022/06/01 01:18:32;;;;;;;;;;;;;;;8.84;100.00;99774.00;5153443;27;20381;-48
2022/06/01 01:21:06;;;;;;;;;;;;;;;8.84;100.00;99777.53;5152550;27;20084;-48
2022/06/01 01:23:37;;;;;;;;;;;;;;;8.81;100.00;99769.22;5153324;27;19923;-48
2022/06/01 01:26:05;;;;;;;;;;;;;;;8.76;100.00;99774.88;5153339;27;19927;-49
2022/06/01 01:28:31;;;;;;;;;;;;;;;8.69;100.00;99767.25;5153399;27;19972;-49
2022/06/01 01:31:02;;;;;;;;;;;;;;;8.75;100.00;99754.97;5153228;27;19926;-49
2022/06/01 01:33:29;;;;;;;;;;;;;;;8.74;100.00;99750.63;5153234;27;20329;-48
2022/06/01 01:35:56;;;;;;;;;;;;;;;8.75;100.00;99751.44;5153030;27;19922;-49
2022/06/01 01:38:25;;;;;;;;;;;;;;;8.76;100.00;99756.53;5153577;27;20294;-49
2022/06/01 01:41:01;;;;;;;;;;;;;;;8.73;100.00;99746.31;5153071;27;19923;-49
2022/06/01 01:43:28;;;;;;;;;;;;;;;8.77;100.00;99746.44;5153332;27;19923;-49
2022/06/01 01:45:54;;;;;;;;;;;;;;;8.67;100.00;99751.19;5153152;27;19976;-49
2022/06/01 01:48:20;;;;;;;;;;;;;;;8.69;100.00;99750.84;5153435;27;19927;-48
2022/06/01 01:50:46;;;;;;;;;;;;;;;8.69;100.00;99748.91;5153145;27;19923;-48
2022/06/01 01:53:12;;;;;;;;;;;;;;;8.67;100.00;99745.72;5152850;27;20002;-49
2022/06/01 01:55:41;;;;;;;;;;;;;;;8.59;100.00;99746.59;5152704;27;19923;-48
2022/06/01 01:58:11;;;;;;;;;;;;;;;8.65;100.00;99734.31;5152965;27;19923;-48
2022/06/01 02:00:41;;;;;;;;;;;;;;;8.60;100.00;99731.03;5153063;27;20309;-49
2022/06/01 02:03:11;;;;;;;;;;;;;;;8.69;100.00;99729.75;5152685;27;19975;-48
2022/06/01 02:08:25;;;;;;;;;;;;;;;8.69;100.00;99727.03;5152790;27;19981;-49
2022/06/01 02:13:37;;;;;;;;;;;;;;;8.74;100.00;99742.44;5152839;27;19965;-51
2022/06/01 02:16:04;;;;;;;;;;;;;;;8.78;100.00;99737.88;5152550;27;19948;-49
2022/06/01 02:18:32;;;;;;;;;;;;;;;8.79;100.00;99736.72;5152587;27;20310;-48
2022/06/01 02:20:59;;;;;;;;;;;;;;;8.79;100.00;99731.28;5152339;27;19923;-52
2022/06/01 02:23:25;;;;;;;;;;;;;;;9.14;100.00;99723.47;5152726;27;19923;-48
2022/06/01 02:25:53;;;;;;;;;;;;;;;9.66;100.00;99746.56;5152670;27;19923;-50
2022/06/01 02:28:19;;;;;;;;;;;;;;;10.00;100.00;99778.13;5152421;27;20457;-51
2022/06/01 02:30:47;;;;;;;;;;;;;;;10.30;100.00;99817.00;5151885;27;19923;-48
2022/06/01 02:33:17;;;;;;;;;;;;;;;10.62;100.00;99861.00;5152139;27;19923;-51
2022/06/01 02:35:44;;;;;;;;;;;;;;;10.94;100.00;99926.94;5152556;27;19927;-49
2022/06/01 02:38:13;;;;;;;;;;;;;;;11.45;100.00;99973.84;5152136;27;19972;-49
2022/06/01 02:40:39;;;;;;;;;;;;;;;11.68;100.00;100010.56;5152524;27;19927;-48
2022/06/01 02:43:05;;;;;;;;;;;;;;;11.90;100.00;100033.94;5152212;27;19953;-48
2022/06/01 02:45:31;;;;;;;;;;;;;;;12.29;100.00;100019.59;5152333;27;19923;-51
2022/06/01 02:47:59;;;;;;;;;;;;;;;12.37;100.00;99975.41;5151961;27;19930;-48
2022/06/01 02:50:27;;;;;;;;;;;;;;;12.53;100.00;99914.91;5152361;27;19991;-52
2022/06/01 02:52:53;;;;;;;;;;;;;;;13.06;100.00;99842.81;5151835;27;20397;-52
2022/06/01 02:55:21;;;;;;;;;;;;;;;13.28;100.00;99731.94;5152050;27;19927;-51
2022/06/01 02:57:47;;;;;;;;;;;;;;;13.41;100.00;99614.91;5151989;27;19923;-52
2022/06/01 03:00:17;;;;;;;;;;;;;;;13.73;100.00;99536.56;5151655;27;19922;-53
2022/06/01 03:02:43;;;;;;;;;;;;;;;14.03;100.00;99489.66;5152096;27;19930;-50
2022/06/01 03:05:09;;;;;;;;;;;;;;;14.09;100.00;99366.81;5151755;27;19923;-49
2022/06/01 03:07:36;;;;;;;;;;;;;;;14.34;100.00;99309.84;5152000;27;19930;-49
2022/06/01 03:10:02;;;;;;;;;;;;;;;14.53;100.00;99242.59;5151707;27;19946;-52
2022/06/01 03:12:28;;;;;;;;;;;;;;;15.42;100.00;98998.81;5151879;27;19948;-49
2022/06/01 03:14:53;;;;;;;;;;;;;;;15.49;100.00;98957.34;5151564;27;20500;-50
2022/06/01 03:17:19;;;;;;;;;;;;;;;15.82;100.00;98800.41;5151994;27;20017;-50
2022/06/01 03:19:45;;;;;;;;;;;;;;;16.37;100.00;98657.59;5151690;27;20382;-53
2022/06/01 03:22:11;;;;;;;;;;;;;;;16.59;100.00;98595.19;5151809;27;20029;-50
2022/06/01 03:24:38;;;;;;;;;;;;;;;17.17;100.00;98570.16;5151594;27;20076;-53
2022/06/01 03:27:04;;;;;;;;;;;;;;;17.42;100.00;98553.03;5151510;27;19967;-53
2022/06/01 03:29:30;;;;;;;;;;;;;;;17.28;100.00;98545.78;5151480;27;19923;-49
2022/06/01 03:31:56;;;;;;;;;;;;;;;17.74;100.00;98541.31;5151949;27;20387;-52
2022/06/01 03:34:25;;;;;;;;;;;;;;;18.28;100.00;98551.25;5151629;27;19923;-53
2022/06/01 03:36:51;;;;;;;;;;;;;;;18.22;100.00;98550.97;5151500;27;19971;-50
2022/06/01 03:39:17;;;;;;;;;;;;;;;18.22;100.00;98559.31;5151889;27;19922;-52
2022/06/01 03:41:44;;;;;;;;;;;;;;;18.40;100.00;98572.00;5151503;27;20005;-50
2022/06/01 03:46:59;;;;;;;;;;;;;;;19.14;100.00;98566.63;5155017;27;19945;-51
2022/06/01 03:49:25;;;;;;;;;;;;;;;18.43;100.00;98576.69;5155295;27;19952;-50
2022/06/01 03:51:51;;;;;;;;;;;;;;;18.90;100.00;98584.72;5154788;27;20382;-49
2022/06/01 03:54:17;;;;;;;;;;;;;;;19.21;100.00;98610.88;5154613;27;19922;-51
2022/06/01 03:56:45;;;;;;;;;;;;;;;19.40;100.00;98609.19;5154802;27;19923;-53
2022/06/01 03:59:11;;;;;;;;;;;;;;;19.72;100.00;98605.56;5154676;27;19944;-53
2022/06/01 04:01:37;;;;;;;;;;;;;;;20.02;100.00;98617.44;5154831;27;19926;-53
2022/06/01 04:04:03;;;;;;;;;;;;;;;19.67;100.00;98628.34;5154557;27;19922;-51
2022/06/01 04:06:30;;;;;;;;;;;;;;;19.91;100.00;98642.78;5155002;27;19929;-52
2022/06/01 04:08:56;;;;;;;;;;;;;;;20.57;100.00;98650.84;5154509;27;19923;-53
2022/06/01 04:11:22;;;;;;;;;;;;;;;21.01;100.00;98676.88;5154789;27;19923;-53
2022/06/01 04:13:49;;;;;;;;;;;;;;;21.30;100.00;98707.41;5154397;27;19942;-54
2022/06/01 04:16:18;;;;;;;;;;;;;;;21.25;100.00;98682.09;5154718;27;19930;-52
2022/06/01 04:18:44;;;;;;;;;;;;;;;20.83;100.00;98719.25;5154497;27;19923;-53
2022/06/01 04:21:10;;;;;;;;;;;;;;;21.17;100.00;98686.34;5154345;27;19944;-50
2022/06/01 04:23:36;;;;;;;;;;;;;;;21.26;100.00;98717.91;5154287;27;19923;-53
2022/06/01 04:26:02;;;;;;;;;;;;;;;22.02;100.00;98702.16;5154481;27;19922;-52
2022/06/01 04:28:28;;;;;;;;;;;;;;;21.56;100.00;98721.31;5154642;27;19934;-54
2022/06/01 04:30:55;;;;;;;;;;;;;;;22.38;100.00;98737.97;5154226;27;20025;-52
2022/06/01 04:33:21;;;;;;;;;;;;;;;22.68;100.00;98730.09;5154192;27;20381;-53
2022/06/01 04:35:47;;;;;;;;;;;;;;;22.06;100.00;98767.03;5154217;27;19934;-50
2022/06/01 04:38:13;;;;;;;;;;;;;;;22.14;100.00;98748.78;5154300;27;19923;-53
2022/06/01 04:40:39;;;;;;;;;;;;;;;22.53;100.00;98778.13;5154066;27;19929;-54
2022/06/01 04:43:05;;;;;;;;;;;;;;;22.48;100.00;98787.06;5154207;27;20377;-54
2022/06/01 04:45:31;;;;;;;;;;;;;;;22.21;100.00;98792.47;5154075;27;19970;-52
2022/06/01 04:47:58;;;;;;;;;;;;;;;23.23;100.00;98784.25;5153911;27;19956;-53
2022/06/01 04:50:24;;;;;;;;;;;;;;;22.51;100.00;98774.22;5153978;27;20340;-54
2022/06/01 04:52:50;;;;;;;;;;;;;;;23.45;100.00;98750.59;5153639;27;19923;-54
2022/06/01 04:55:15;;;;;;;;;;;;;;;22.88;100.00;98775.22;5153986;27;19946;-55
2022/06/01 04:57:41;;;;;;;;;;;;;;;22.72;100.00;98756.63;5153936;27;20375;-54
2022/06/01 05:00:08;;;;;;;;;;;;;;;22.62;100.00;98709.56;5154196;27;19995;-53
2022/06/01 05:02:34;;;;;;;;;;;;;;;23.16;100.00;98751.00;5153816;27;19923;-51
2022/06/01 05:05:01;;;;;;;;;;;;;;;23.21;100.00;98814.69;5153823;27;19923;-54
2022/06/01 05:07:27;;;;;;;;;;;;;;;22.99;100.00;98739.28;5153271;27;19923;-65
2022/06/01 05:09:53;;;;;;;;;;;;;;;23.34;100.00;98791.44;5153483;27;19923;-62
2022/06/01 05:12:19;;;;;;;;;;;;;;;24.41;100.00;98775.78;5153476;27;20029;-64
2022/06/01 05:14:45;;;;;;;;;;;;;;;24.53;100.00;98774.84;5153142;27;19923;-55
2022/06/01 05:17:10;;;;;;;;;;;;;;;24.46;100.00;98799.56;5153505;27;20009;-64
2022/06/01 05:19:36;;;;;;;;;;;;;;;23.69;100.00;98792.03;5153381;27;20306;-67
2022/06/01 05:22:03;;;;;;;;;;;;;;;24.09;100.00;98803.16;5153222;27;20298;-67
2022/06/01 05:24:29;;;;;;;;;;;;;;;23.56;100.00;98794.94;5153273;27;19923;-67
2022/06/01 05:26:55;;;;;;;;;;;;;;;24.01;100.00;98813.09;5153364;27;19923;-64
2022/06/01 05:29:22;;;;;;;;;;;;;;;23.33;100.00;98773.13;5153195;27;20022;-66
2022/06/01 05:31:48;;;;;;;;;;;;;;;24.29;100.00;98833.50;5153118;27;19926;-63
2022/06/01 05:34:14;;;;;;;;;;;;;;;24.77;100.00;98824.63;5153053;27;19930;-65
2022/06/01 05:36:40;;;;;;;;;;;;;;;25.03;100.00;98839.81;5153220;27;19930;-66
2022/06/01 05:39:07;;;;;;;;;;;;;;;24.95;100.00;98874.25;5152966;27;19923;-62
2022/06/01 05:41:33;;;;;;;;;;;;;;;25.37;100.00;98843.47;5152979;27;19929;-63
2022/06/01 05:43:59;;;;;;;;;;;;;;;24.16;100.00;98863.69;5152903;27;19941;-58
2022/06/01 05:46:26;;;;;;;;;;;;;;;24.94;100.00;98869.91;5152902;27;19922;-65
2022/06/01 05:48:52;;;;;;;;;;;;;;;25.64;100.00;98844.63;5152745;27;19968;-66
2022/06/01 05:51:18;;;;;;;;;;;;;;;24.95;100.00;98863.81;5153158;27;19922;-66
2022/06/01 05:53:44;;;;;;;;;;;;;;;25.20;100.00;98859.91;5152939;27;19926;-63
2022/06/01 05:56:10;;;;;;;;;;;;;;;26.33;100.00;98888.53;5152214;27;19923;-61
2022/06/01 05:58:36;;;;;;;;;;;;;;;25.24;100.00;98922.22;5152700;27;19971;-59
2022/06/01 06:01:05;;;;;;;;;;;;;;;25.65;100.00;98905.09;5153008;27;19922;-60
2022/06/01 06:03:31;;;;;;;;;;;;;;;25.78;100.00;98886.78;5152548;27;19929;-58
2022/06/01 06:06:13;;;;;;;;;;;;;;;26.36;100.00;98887.59;5152020;27;19930;-59
2022/06/01 06:08:40;;;;;;;;;;;;;;;25.33;100.00;98857.69;5152545;27;19927;-59
2022/06/01 06:11:06;;;;;;;;;;;;;;;25.34;100.00;98866.88;5152904;27;20285;-59
2022/06/01 06:13:33;;;;;;;;;;;;;;;25.77;100.00;98851.56;5152312;27;19926;-62
2022/06/01 06:15:59;;;;;;;;;;;;;;;25.50;100.00;98872.13;5152377;27;19923;-61
2022/06/01 06:18:25;;;;;;;;;;;;;;;25.62;100.00;98887.19;5152240;27;19927;-60
2022/06/01 06:20:51;;;;;;;;;;;;;;;24.68;100.00;98903.09;5152379;27;19971;-60
2022/06/01 06:23:17;;;;;;;;;;;;;;;23.88;100.00;98888.03;5152502;27;19922;-62
2022/06/01 06:25:43;;;;;;;;;;;;;;;24.25;100.00;98883.28;5152384;27;19923;-62
2022/06/01 06:28:09;;;;;;;;;;;;;;;24.37;100.00;98859.94;5152343;27;20029;-58
2022/06/01 06:30:36;;;;;;;;;;;;;;;24.48;100.00;98903.56;5152207;27;19945;-59
2022/06/01 06:33:02;;;;;;;;;;;;;;;23.59;100.00;98880.75;5152264;27;19930;-63
2022/06/01 06:35:28;;;;;;;;;;;;;;;24.33;100.00;98861.34;5152189;27;19927;-54
2022/06/01 06:37:54;;;;;;;;;;;;;;;24.01;100.00;98849.47;5152224;27;20002;-60
2022/06/01 06:40:20;;;;;;;;;;;;;;;24.69;100.00;98857.78;5151904;27;19975;-62
2022/06/01 06:42:46;;;;;;;;;;;;;;;25.92;100.00;98885.34;5151866;27;20011;-58
2022/06/01 06:45:12;;;;;;;;;;;;;;;25.22;100.00;98888.25;5151817;27;19929;-58
2022/06/01 06:47:39;;;;;;;;;;;;;;;25.40;100.00;98864.22;5152341;27;19930;-58
2022/06/01 06:50:06;;;;;;;;;;;;;;;25.26;100.00;98832.00;5152105;27;19934;-61
2022/06/01 06:52:32;;;;;;;;;;;;;;;26.22;100.00;98826.47;5151980;27;19929;-60
2022/06/01 06:54:58;;;;;;;;;;;;;;;26.88;100.00;98876.84;5151795;27;19927;-56
2022/06/01 06:57:24;;;;;;;;;;;;;;;25.79;100.00;98851.06;5152107;27;19923;-55
2022/06/01 06:59:50;;;;;;;;;;;;;;;24.85;100.00;98879.88;5152155;27;20753;-60
2022/06/01 07:02:16;;;;;;;;;;;;;;;24.81;100.00;98951.38;5151751;27;20449;-59
2022/06/01 07:04:42;;;;;;;;;;;;;;;24.67;100.00;98921.94;5151919;27;19930;-61
2022/06/01 07:07:08;;;;;;;;;;;;;;;24.91;100.00;98912.91;5151491;27;19931;-61
2022/06/01 07:09:34;;;;;;;;;;;;;;;24.30;100.00;98913.47;5151806;27;20021;-61
2022/06/01 07:12:00;;;;;;;;;;;;;;;24.25;100.00;98916.88;5151593;27;20412;-62
2022/06/01 07:14:26;;;;;;;;;;;;;;;24.65;100.00;98927.22;5151979;27;19969;-59
2022/06/01 07:16:52;;;;;;;;;;;;;;;24.59;100.00;98946.72;5151436;27;19927;-61
2022/06/01 07:19:19;;;;;;;;;;;;;;;24.26;100.00;98946.47;5154572;27;19923;-63
2022/06/01 07:21:45;;;;;;;;;;;;;;;25.21;100.00;98956.84;5155321;27;19923;-61
2022/06/01 07:24:11;;;;;;;;;;;;;;;24.96;100.00;98987.97;5155162;27;19968;-62
2022/06/01 07:26:39;;;;;;;;;;;;;;;26.05;100.00;98975.00;5155360;27;20013;-62
2022/06/01 07:29:06;;;;;;;;;;;;;;;26.21;100.00;98963.38;5154925;27;19937;-60
2022/06/01 07:31:32;;;;;;;;;;;;;;;26.24;100.00;98987.72;5155082;27;19930;-61
2022/06/01 07:33:58;;;;;;;;;;;;;;;26.15;100.00;98965.28;5155028;27;20309;-62
2022/06/01 07:36:25;;;;;;;;;;;;;;;27.25;100.00;98968.59;5155041;27;19922;-62
2022/06/01 07:44:36;;;;;;;;;;;;;;;25.48;100.00;98944.78;5090839;28;19924;-63
2022/06/01 07:47:02;;;;;;;;;;;;;;;25.57;100.00;98908.25;5090989;28;19954;-62
2022/06/01 07:49:28;;;;;;;;;;;;;;;25.93;100.00;98895.34;5118461;27;20466;-62
2022/06/01 07:51:54;;;;;;;;;;;;;;;25.98;100.00;98894.66;5154623;27;19923;-62
2022/06/01 07:54:21;;;;;;;;;;;;;;;25.61;100.00;98888.44;5154799;27;19948;-62
2022/06/01 07:56:47;;;;;;;;;;;;;;;24.84;100.00;98880.34;5154606;27;19926;-54
2022/06/01 07:59:13;;;;;;;;;;;;;;;25.39;100.00;98869.06;5154762;27;19929;-55
2022/06/01 08:01:39;;;;;;;;;;;;;;;25.71;100.00;98867.50;5154531;27;19927;-53
2022/06/01 08:04:06;;;;;;;;;;;;;;;24.66;100.00;98875.56;5154500;27;19923;-55
2022/06/01 08:06:33;;;;;;;;;;;;;;;24.29;100.00;98861.50;5154479;27;19923;-58
2022/06/01 08:08:59;;;;;;;;;;;;;;;23.76;100.00;98822.53;5154464;27;19930;-57
2022/06/01 08:14:06;;;;;;;;;;;;;;;23.85;100.00;98797.34;5153269;27;19929;-53
2022/06/01 08:16:32;;;;;;;;;;;;;;;24.49;100.00;98827.47;5154607;27;20005;-53
2022/06/01 08:18:58;;;;;;;;;;;;;;;24.59;100.00;98859.03;5154227;27;19927;-56
2022/06/01 08:21:24;;;;;;;;;;;;;;;24.78;100.00;98873.81;5154889;27;19923;-55
2022/06/01 08:23:50;;;;;;;;;;;;;;;25.55;100.00;98885.50;5154361;27;20524;-57
2022/06/01 08:26:16;;;;;;;;;;;;;;;25.13;100.00;98888.28;5154445;27;19967;-57
2022/06/01 08:28:42;;;;;;;;;;;;;;;25.27;100.00;98892.47;5153504;27;19923;-61
2022/06/01 08:31:08;;;;;;;;;;;;;;;25.00;100.00;98908.06;5154045;27;19931;-61
2022/06/01 08:33:34;;;;;;;;;;;;;;;24.33;100.00;98825.72;5153882;27;19946;-61
2022/06/01 08:36:01;;;;;;;;;;;;;;;23.85;100.00;98819.75;5153847;27;20050;-61
2022/06/01 08:38:26;;;;;;;;;;;;;;;22.43;100.00;98801.63;5154266;27;19923;-61
2022/06/01 08:40:55;;;;;;;;;;;;;;;22.13;100.00;98774.38;5154010;27;19931;-61
2022/06/01 08:43:23;;;;;;;;;;;;;;;22.33;100.00;98763.72;5154040;27;20385;-61
2022/06/01 08:45:53;;;;;;;;;;;;;;;22.78;100.00;98768.78;5153977;27;20290;-61
2022/06/01 08:48:22;;;;;;;;;;;;;;;23.43;100.00;98736.31;5154306;27;20382;-61
2022/06/01 08:50:48;;;;;;;;;;;;;;;23.25;100.00;98767.00;5153800;27;19927;-61
2022/06/01 08:53:14;;;;;;;;;;;;;;;23.69;100.00;98814.41;5154126;27;20019;-61
2022/06/01 08:55:47;;;;;;;;;;;;;;;23.30;100.00;98841.94;5153718;27;19967;-61
2022/06/01 08:58:15;;;;;;;;;;;;;;;24.92;100.00;98847.16;5153733;27;19967;-63
2022/06/01 09:00:45;;;;;;;;;;;;;;;25.71;100.00;98858.28;5153687;27;19923;-61
2022/06/01 09:03:14;;;;;;;;;;;;;;;24.17;100.00;98874.41;5153478;27;19923;-61
2022/06/01 09:05:43;;;;;;;;;;;;;;;23.27;100.00;98876.41;5153656;27;19972;-60
2022/06/01 09:08:11;;;;;;;;;;;;;;;23.77;100.00;98843.69;5153609;27;19922;-61
2022/06/01 09:10:44;;;;;;;;;;;;;;;24.19;100.00;98824.31;5153759;27;19923;-62
2022/06/01 09:13:12;;;;;;;;;;;;;;;23.85;100.00;98833.72;5153441;27;19930;-62
2022/06/01 09:15:44;;;;;;;;;;;;;;;23.11;100.00;98809.53;5154016;27;19978;-59
2022/06/01 09:18:10;;;;;;;;;;;;;;;22.79;100.00;98789.13;5153227;27;19923;-62
2022/06/01 09:23:21;;;;;;;;;;;;;;;22.88;100.00;98743.69;5153613;27;19938;-56
2022/06/01 09:25:51;;;;;;;;;;;;;;;23.23;100.00;98753.50;5153416;27;20370;-61
2022/06/01 09:28:19;;;;;;;;;;;;;;;23.20;100.00;98781.59;5153436;27;19930;-60
2022/06/01 09:30:46;;;;;;;;;;;;;;;23.16;100.00;98804.13;5153026;27;19930;-57
2022/06/01 09:33:15;;;;;;;;;;;;;;;23.97;100.00;98790.06;5152925;27;19968;-57
2022/06/01 09:35:43;;;;;;;;;;;;;;;24.42;100.00;98853.75;5153018;27;19923;-53
2022/06/01 09:38:11;;;;;;;;;;;;;;;24.30;100.00;98874.25;5153380;27;19926;-63
2022/06/01 09:40:37;;;;;;;;;;;;;;;24.37;100.00;98861.97;5151914;27;19923;-58
2022/06/01 09:43:04;;;;;;;;;;;;;;;23.73;100.00;98814.28;5153135;27;20010;-56
2022/06/01 09:45:33;;;;;;;;;;;;;;;24.26;100.00;98806.41;5152901;27;19930;-56
2022/06/01 09:48:10;;;;;;;;;;;;;;;24.28;100.00;98862.75;5152792;27;19923;-58
2022/06/01 09:50:38;;;;;;;;;;;;;;;23.75;100.00;98857.34;5152965;27;19930;-56
2022/06/01 09:53:15;;;;;;;;;;;;;;;23.54;100.00;98852.59;5152968;27;19922;-62
2022/06/01 09:55:50;;;;;;;;;;;;;;;24.78;100.00;98826.16;5152809;27;19923;-54
2022/06/01 10:06:05;;;;;;;;;;;;;;;24.39;100.00;98849.06;5152543;27;19943;-54
2022/06/01 10:06:36;;;;;;;;;;;;;;;24.10;100.00;98827.09;5120235;27;19923;-57
2022/06/01 10:09:08;;;;;;;;;;;;;;;24.10;100.00;98810.28;5152702;27;19930;-56
2022/06/01 10:11:35;;;;;;;;;;;;;;;23.91;100.00;98794.72;5151970;27;19971;-55
2022/06/01 10:14:06;;;;;;;;;;;;;;;23.63;100.00;98779.88;5152414;27;19922;-55
2022/06/01 10:16:37;;;;;;;;;;;;;;;23.65;100.00;98724.22;5152424;27;19923;-55
2022/06/01 10:19:04;;;;;;;;;;;;;;;22.95;100.00;98747.00;5152372;27;19923;-54
2022/06/01 10:21:35;;;;;;;;;;;;;;;22.76;100.00;98787.28;5152337;27;19992;-54
2022/06/01 10:24:05;;;;;;;;;;;;;;;22.86;100.00;98737.78;5152227;27;19923;-54
2022/06/01 10:26:34;;;;;;;;;;;;;;;23.19;100.00;98698.94;5152368;27;19929;-53
2022/06/01 10:29:03;;;;;;;;;;;;;;;22.40;100.00;98642.59;5152166;27;20274;-52
2022/06/01 10:31:32;;;;;;;;;;;;;;;22.68;100.00;98671.41;5152278;27;19927;-53
2022/06/01 10:34:01;;;;;;;;;;;;;;;21.94;100.00;98631.13;5151745;27;19923;-53
2022/06/01 10:36:35;;;;;;;;;;;;;;;22.41;100.00;98613.41;5152312;27;19923;-55
2022/06/01 10:39:03;;;;;;;;;;;;;;;22.18;100.00;98615.47;5151963;27;20421;-54
2022/06/01 10:41:33;;;;;;;;;;;;;;;22.69;100.00;98577.97;5151678;27;20018;-55
2022/06/01 10:44:02;;;;;;;;;;;;;;;23.27;100.00;98616.31;5151789;27;19927;-55
2022/06/01 10:46:39;;;;;;;;;;;;;;;23.17;100.00;98631.53;5151780;27;20317;-54
2022/06/01 10:49:12;;;;;;;;;;;;;;;23.43;100.00;98607.63;5152097;27;20695;-54
2022/06/01 10:51:38;;;;;;;;;;;;;;;23.44;100.00;98614.00;5151498;27;19929;-54
2022/06/01 10:54:07;;;;;;;;;;;;;;;22.37;100.00;98633.09;5151743;27;19923;-54
2022/06/01 10:56:34;;;;;;;;;;;;;;;22.99;100.00;98654.63;5151602;27;19923;-52
2022/06/01 10:59:02;;;;;;;;;;;;;;;23.27;100.00;98663.88;5152032;27;19975;-54
2022/06/01 11:01:39;;;;;;;;;;;;;;;22.83;100.00;98638.88;5151633;27;20335;-54
2022/06/01 11:04:20;;;;;;;;;;;;;;;22.59;100.00;98591.13;5151813;27;19923;-54
2022/06/01 11:06:53;;;;;;;;;;;;;;;22.35;100.00;98599.25;5147760;27;19929;-52
2022/06/01 11:09:23;;;;;;;;;;;;;;;22.23;100.00;98623.25;5151440;27;19930;-54
2022/06/01 11:11:54;;;;;;;;;;;;;;;22.08;100.00;98617.38;5151624;27;19930;-56
2022/06/01 11:14:24;;;;;;;;;;;;;;;22.13;100.00;98620.84;5151214;27;19923;-53
2022/06/01 11:16:54;;;;;;;;;;;;;;;21.80;100.00;98576.63;5151437;27;20397;-53
2022/06/01 11:19:28;;;;;;;;;;;;;;;21.80;100.00;98559.88;5151207;27;19930;-52
2022/06/01 11:22:00;;;;;;;;;;;;;;;21.90;100.00;98538.38;5151375;27;19922;-55
2022/06/01 11:24:36;;;;;;;;;;;;;;;21.68;100.00;98553.13;5151521;27;20761;-54
2022/06/01 11:27:12;;;;;;;;;;;;;;;21.93;100.00;98579.34;5151311;27;20297;-54
2022/06/01 11:29:45;;;;;;;;;;;;;;;21.80;100.00;98559.88;5151398;27;19923;-54
2022/06/01 11:32:13;;;;;;;;;;;;;;;21.24;100.00;98560.66;5151200;27;19923;-54
2022/06/01 11:34:43;;;;;;;;;;;;;;;21.40;100.00;98548.59;5151339;27;19927;-54
2022/06/01 11:37:12;;;;;;;;;;;;;;;22.01;100.00;98556.25;5151059;27;19927;-54
2022/06/01 11:39:43;;;;;;;;;;;;;;;22.15;100.00;98565.31;5151310;27;20421;-55
2022/06/01 11:42:14;;;;;;;;;;;;;;;21.79;100.00;98575.84;5151183;27;19926;-54
2022/06/01 11:44:43;;;;;;;;;;;;;;;21.88;100.00;98555.56;5151028;27;20313;-54
2022/06/01 11:47:12;;;;;;;;;;;;;;;21.81;100.00;98547.47;5150986;27;19948;-57
2022/06/01 11:49:40;;;;;;;;;;;;;;;21.82;100.00;98524.69;5151419;27;20385;-54
2022/06/01 11:52:14;;;;;;;;;;;;;;;22.53;100.00;98509.97;5151242;27;19923;-54
2022/06/01 11:54:40;;;;;;;;;;;;;;;21.91;100.00;98496.06;5150879;27;19930;-54
2022/06/01 11:57:18;;;;;;;;;;;;;;;21.96;100.00;98466.75;5150954;27;19923;-54
2022/06/01 11:59:46;;;;;;;;;;;;;;;22.33;100.00;98475.31;5150760;27;19923;-54
2022/06/01 12:02:40;;;;;;;;;;;;;;;21.93;100.00;98476.09;5150915;27;19923;-54
2022/06/01 12:05:08;;;;;;;;;;;;;;;22.41;100.00;98443.84;5153227;27;20010;-54
2022/06/01 12:07:36;;;;;;;;;;;;;;;22.03;100.00;98478.44;5154340;27;19981;-55
2022/06/01 12:10:03;;;;;;;;;;;;;;;21.96;100.00;98430.50;5154473;27;19927;-55
2022/06/01 12:12:46;;;;;;;;;;;;;;;21.72;100.00;98450.53;5154263;27;19927;-56
2022/06/01 12:15:18;;;;;;;;;;;;;;;22.14;100.00;98424.19;5154326;27;20417;-56
2022/06/01 12:17:59;;;;;;;;;;;;;;;21.86;100.00;98438.06;5154197;27;19965;-53
2022/06/01 12:20:46;;;;;;;;;;;;;;;21.40;100.00;98434.28;5154163;27;19923;-54
2022/06/01 12:29:40;;;;;;;;;;;;;;;21.50;100.00;98394.06;5154490;27;19937;-54
2022/06/01 12:32:08;;;;;;;;;;;;;;;21.37;100.00;98380.97;5154324;27;19923;-54
2022/06/01 12:34:35;;;;;;;;;;;;;;;21.80;100.00;98345.03;5153908;27;19923;-55
2022/06/01 12:37:07;;;;;;;;;;;;;;;21.71;100.00;98379.25;5154072;27;19938;-52
2022/06/01 12:39:34;;;;;;;;;;;;;;;22.08;100.00;98373.78;5153906;27;19930;-53
2022/06/01 12:42:02;;;;;;;;;;;;;;;22.11;100.00;98372.09;5154217;27;20333;-53
2022/06/01 12:44:28;;;;;;;;;;;;;;;22.42;100.00;98356.00;5153909;27;19931;-55
2022/06/01 12:46:55;;;;;;;;;;;;;;;22.61;100.00;98392.34;5153650;27;19968;-55
2022/06/01 12:49:29;;;;;;;;;;;;;;;22.27;100.00;98349.50;5153717;27;20347;-54
2022/06/01 12:51:56;;;;;;;;;;;;;;;22.12;100.00;98318.59;5154188;27;19923;-55
2022/06/01 12:54:26;;;;;;;;;;;;;;;22.75;100.00;98336.59;5153711;27;19922;-54
2022/06/01 12:56:52;;;;;;;;;;;;;;;22.22;100.00;98336.16;5153764;27;19930;-54
2022/06/01 12:59:18;;;;;;;;;;;;;;;22.39;100.00;98331.84;5153990;27;20017;-53
2022/06/01 13:01:49;;;;;;;;;;;;;;;22.22;100.00;98327.78;5153876;27;19923;-54
2022/06/01 13:04:21;;;;;;;;;;;;;;;22.49;100.00;98330.59;5153900;27;19956;-51
2022/06/01 13:06:47;;;;;;;;;;;;;;;22.47;100.00;98332.28;5153510;27;19926;-54
2022/06/01 13:09:18;;;;;;;;;;;;;;;22.16;100.00;98296.13;5153649;27;19930;-54
2022/06/01 13:11:45;;;;;;;;;;;;;;;21.58;100.00;98281.75;5153654;27;19930;-54